Terminal Aerodrome Forecast
Issued by NWS

Home | Current Version | Previous Version | Text Only | Print | Product List | Glossary On
Versions: 1 2 3 4 5 6 7 8 9 10 11 12 13 14 15 16 17 18 19 20 21 22 23 24 25 26 27 28 29 30 31
000
FTUS43 KDLH 240024 AAA
TAFHYR
TAF AMD
KHYR 240024Z 2400/2424 24006KT 5SM -SHRA BR SCT025 BKN050
      TEMPO 2400/2402 VRB25KT 2SM TSRA SCT015 BKN025CB
     FM240200 22006KT P6SM VCTS BKN040CB OVC060
     FM240400 18005KT P6SM VCSH BKN040 OVC080
     FM240700 VRB03KT 5SM BR BKN015 OVC070
      TEMPO 2409/2412 1SM BR
     FM241400 22005KT P6SM BKN025 OVC060
     FM241600 23004KT P6SM BKN060=

USA.gov is the U.S. government's official web portal to all federal, state and local government web resources and services.